Time;durP1;ratioP1;P1;durP2;ratioP2;P2;SDS_P1;SDS_P2;PMS_P1;PMS_P2;Temp;Humidity;BMP_temperature;BMP_pressure;BME280_temperature;BME280_humidity;BME280_pressure;Samples;Min_cycle;Max_cycle;Signal;HPM_P1;HPM_P2
2023/12/22 00:00:51;;;;;;;4.17;2.10;;;5.70;99.90;5.60;97852.00;;;;4913089;28;113952;-68
2023/12/22 00:03:16;;;;;;;6.03;2.03;;;5.70;99.90;5.60;97833.00;;;;4909819;28;87833;-68
2023/12/22 00:05:42;;;;;;;5.60;3.23;;;5.80;99.90;5.60;97824.00;;;;4911769;28;102888;-68
2023/12/22 00:08:07;;;;;;;7.37;2.00;;;5.80;99.90;5.70;97814.00;;;;4911011;28;87860;-69
2023/12/22 00:10:33;;;;;;;5.23;2.03;;;5.80;99.90;5.70;97812.00;;;;4911168;28;118275;-68
2023/12/22 00:12:59;;;;;;;3.47;1.57;;;5.80;99.90;5.70;97825.00;;;;4910008;28;88844;-69
2023/12/22 00:15:24;;;;;;;9.33;1.93;;;5.90;99.90;5.70;97844.00;;;;4909143;28;109182;-68
2023/12/22 00:17:50;;;;;;;4.20;1.63;;;5.90;99.90;5.80;97841.00;;;;4909335;28;91452;-68
2023/12/22 00:20:16;;;;;;;6.57;1.93;;;5.90;99.90;5.70;97834.00;;;;4908507;28;88396;-69
2023/12/22 00:22:42;;;;;;;5.00;1.67;;;5.90;99.90;5.70;97834.00;;;;4914041;28;116981;-69
2023/12/22 00:25:09;;;;;;;4.93;1.87;;;5.90;99.90;5.70;97825.00;;;;4909222;28;87836;-69
2023/12/22 00:27:35;;;;;;;5.90;2.30;;;5.90;99.90;5.60;97804.00;;;;4910469;28;87881;-70
2023/12/22 00:30:00;;;;;;;2.43;1.53;;;5.80;99.90;5.60;97824.00;;;;4911154;28;105442;-69
2023/12/22 00:32:26;;;;;;;6.70;2.03;;;6.30;99.90;5.60;97829.00;;;;4910097;28;115331;-70
2023/12/22 00:34:52;;;;;;;4.43;1.87;;;5.80;99.90;5.60;97836.00;;;;4906076;28;110265;-70
2023/12/22 00:37:18;;;;;;;2.77;1.20;;;5.80;99.90;5.70;97829.00;;;;4925781;28;89013;-70
2023/12/22 00:39:43;;;;;;;3.93;1.23;;;5.80;99.90;5.60;97844.00;;;;4925925;28;88388;-71
2023/12/22 00:42:09;;;;;;;7.00;1.80;;;5.80;99.90;5.50;97812.00;;;;4907313;28;116287;-70
2023/12/22 00:44:35;;;;;;;2.40;1.63;;;5.70;99.90;5.30;97832.00;;;;4911206;28;88679;-71
2023/12/22 00:47:01;;;;;;;8.47;1.93;;;6.10;99.90;5.20;97846.00;;;;4915213;28;88089;-72
2023/12/22 00:49:26;;;;;;;10.77;2.17;;;6.00;99.90;5.10;97843.00;;;;4895748;28;87939;-71
2023/12/22 00:51:52;;;;;;;5.47;1.60;;;5.30;99.90;5.00;97848.00;;;;4915217;28;116381;-72
2023/12/22 00:54:17;;;;;;;2.67;0.90;;;5.80;99.90;4.90;97842.00;;;;4907487;28;110224;-70
2023/12/22 00:56:43;;;;;;;2.80;1.00;;;5.10;99.90;4.90;97843.00;;;;4907721;28;109295;-70
2023/12/22 00:59:09;;;;;;;4.90;1.93;;;5.20;99.90;4.90;97828.00;;;;4909745;28;118634;-69
2023/12/22 01:01:34;;;;;;;3.90;1.47;;;5.10;99.90;4.90;97833.00;;;;4908824;28;118256;-71
2023/12/22 01:04:00;;;;;;;1.67;1.00;;;5.10;99.90;5.00;97852.00;;;;4909614;28;88088;-68
2023/12/22 01:06:26;;;;;;;1.10;0.93;;;5.20;99.90;5.10;97851.00;;;;4908505;28;106670;-70
2023/12/22 01:08:51;;;;;;;4.23;1.57;;;5.20;99.90;5.10;97844.00;;;;4909941;28;117860;-69
2023/12/22 01:11:17;;;;;;;4.43;1.53;;;5.90;99.90;5.10;97869.00;;;;4903934;28;87710;-71
2023/12/22 01:13:44;;;;;;;3.30;0.90;;;5.20;99.90;5.10;97864.00;;;;4909272;28;87515;-69
2023/12/22 01:16:10;;;;;;;2.43;1.27;;;5.20;99.90;5.10;97864.00;;;;4916312;28;88394;-70
2023/12/22 01:18:35;;;;;;;8.43;1.83;;;5.80;99.90;5.10;97898.00;;;;4910665;28;89801;-70
2023/12/22 01:21:01;;;;;;;10.03;1.30;;;5.50;99.90;5.10;97922.00;;;;4895631;28;117500;-69
2023/12/22 01:23:27;;;;;;;2.00;1.00;;;5.30;99.90;5.20;97934.00;;;;4906715;28;111916;-71
2023/12/22 01:25:52;;;;;;;15.23;1.33;;;5.30;99.90;5.30;97954.00;;;;4912522;28;89049;-70
2023/12/22 01:28:18;;;;;;;4.93;1.60;;;5.30;99.90;5.30;97927.00;;;;4906386;28;92746;-69
2023/12/22 01:30:44;;;;;;;1.77;1.00;;;5.40;99.90;5.30;97929.00;;;;4910509;28;116451;-71
2023/12/22 01:33:09;;;;;;;1.47;1.10;;;5.90;99.90;5.30;97918.00;;;;4909931;28;109957;-72
2023/12/22 01:35:35;;;;;;;2.63;1.53;;;5.60;99.90;5.30;97941.00;;;;4906679;28;87837;-70
2023/12/22 01:38:01;;;;;;;4.47;1.60;;;5.70;99.90;5.30;97933.00;;;;4910911;28;118354;-70
2023/12/22 01:40:26;;;;;;;1.10;0.60;;;5.50;99.90;5.30;97939.00;;;;4909394;28;90384;-70
2023/12/22 01:42:52;;;;;;;3.77;1.70;;;5.50;99.90;5.30;97949.00;;;;4915690;28;104735;-70
2023/12/22 01:45:17;;;;;;;2.07;1.07;;;5.40;99.90;5.30;97933.00;;;;4911818;28;108749;-73
2023/12/22 01:47:45;;;;;;;2.63;1.43;;;5.60;99.90;5.30;97921.00;;;;4905021;28;117253;-69
2023/12/22 01:50:12;;;;;;;4.80;1.40;;;5.50;99.90;5.40;97944.00;;;;4919196;28;88688;-72
2023/12/22 01:52:39;;;;;;;1.13;1.00;;;5.50;99.90;5.40;97947.00;;;;4925306;28;87987;-70
2023/12/22 01:55:06;;;;;;;1.53;0.93;;;5.60;99.90;5.40;97941.00;;;;4914758;28;88056;-71
2023/12/22 01:57:34;;;;;;;3.33;1.80;;;5.50;99.90;5.40;97945.00;;;;4910642;28;89190;-71
2023/12/22 02:00:00;;;;;;;2.97;1.60;;;5.90;99.90;5.30;97914.00;;;;4910297;28;90494;-73
2023/12/22 02:02:27;;;;;;;1.90;1.03;;;5.50;99.90;5.30;97937.00;;;;4905813;28;110296;-69
2023/12/22 02:04:53;;;;;;;6.30;1.03;;;5.50;99.90;5.30;97932.00;;;;4912094;28;87771;-71
2023/12/22 02:07:19;;;;;;;2.80;1.03;;;6.00;99.90;5.30;97944.00;;;;4907026;28;103377;-69
2023/12/22 02:09:45;;;;;;;2.73;1.43;;;5.90;99.90;5.30;97931.00;;;;4921076;28;112942;-69
2023/12/22 02:12:10;;;;;;;3.23;1.47;;;5.40;99.90;5.30;97936.00;;;;4910185;28;110464;-74
2023/12/22 02:14:36;;;;;;;4.80;1.67;;;5.50;99.90;5.30;97912.00;;;;4909351;28;103827;-70
2023/12/22 02:17:21;;;;;;;5.43;1.77;;;5.40;99.90;5.30;97938.00;;;;4907095;28;119501;-69
2023/12/22 02:19:48;;;;;;;6.03;1.87;;;5.50;99.90;5.30;97922.00;;;;4921593;28;87690;-70
2023/12/22 02:22:14;;;;;;;5.37;1.10;;;6.40;99.90;5.20;97919.00;;;;4907562;28;87808;-69
2023/12/22 02:24:41;;;;;;;5.53;1.40;;;6.30;99.90;5.20;97917.00;;;;4909544;28;108864;-69
2023/12/22 02:27:31;;;;;;;3.53;1.57;;;5.80;99.90;5.00;97906.00;;;;4906465;28;88768;-68
2023/12/22 02:30:13;;;;;;;3.17;1.33;;;5.30;99.90;5.00;97894.00;;;;4906408;28;90316;-69
2023/12/22 02:32:43;;;;;;;4.47;1.30;;;5.20;99.90;5.00;97883.00;;;;4926917;28;87832;-70
2023/12/22 02:35:18;;;;;;;2.70;1.27;;;5.20;99.90;4.90;97911.00;;;;4911379;28;87654;-70
2023/12/22 02:37:47;;;;;;;1.70;0.83;;;5.00;99.90;4.90;97901.00;;;;4923921;28;88756;-70
2023/12/22 02:40:14;;;;;;;3.70;1.03;;;5.70;99.90;4.90;97916.00;;;;4905722;28;90300;-71
2023/12/22 02:42:40;;;;;;;5.80;1.10;;;5.10;99.90;4.90;97913.00;;;;4908158;28;87921;-70
2023/12/22 02:45:06;;;;;;;3.20;1.10;;;5.70;99.90;4.90;97938.00;;;;4896545;28;87986;-70
2023/12/22 02:47:33;;;;;;;1.80;1.23;;;5.10;99.90;4.90;97932.00;;;;4909133;28;89841;-71
2023/12/22 02:49:59;;;;;;;4.20;1.43;;;5.00;99.90;4.90;97957.00;;;;4908912;28;87912;-71
2023/12/22 02:52:25;;;;;;;6.90;1.43;;;5.00;99.90;4.90;97942.00;;;;4898608;28;88072;-72
2023/12/22 02:54:50;;;;;;;4.47;1.33;;;5.10;99.90;4.90;97950.00;;;;4903870;28;88223;-71
2023/12/22 02:57:16;;;;;;;3.33;1.50;;;5.00;99.90;4.90;97947.00;;;;4913784;28;87739;-71
2023/12/22 02:59:42;;;;;;;5.37;1.30;;;5.10;99.90;4.90;97952.00;;;;4904482;28;115859;-73
2023/12/22 03:02:07;;;;;;;8.00;2.73;;;5.10;99.90;4.90;97972.00;;;;4916346;28;111582;-72
2023/12/22 03:04:33;;;;;;;5.23;1.70;;;5.00;99.90;4.90;97963.00;;;;4909969;28;97605;-72
2023/12/22 03:06:59;;;;;;;2.37;1.47;;;5.10;99.90;4.80;97939.00;;;;4911751;28;104280;-70
2023/12/22 03:09:24;;;;;;;1.40;1.03;;;5.00;99.90;4.70;97937.00;;;;4918029;28;90659;-71
2023/12/22 03:11:54;;;;;;;6.73;2.10;;;4.90;99.90;4.60;97951.00;;;;4914714;28;87991;-70
2023/12/22 03:14:20;;;;;;;2.53;1.40;;;4.90;99.90;4.60;97946.00;;;;4915482;28;87622;-72
2023/12/22 03:16:45;;;;;;;9.10;1.87;;;5.30;99.90;4.50;97969.00;;;;4910042;28;88087;-71
2023/12/22 03:19:11;;;;;;;2.30;1.30;;;4.70;99.90;4.50;97921.00;;;;4909634;28;97750;-72
2023/12/22 03:21:37;;;;;;;8.90;2.13;;;4.70;99.90;4.40;97950.00;;;;4912194;28;87668;-72
2023/12/22 03:24:03;;;;;;;7.60;1.70;;;4.60;99.90;4.30;97956.00;;;;4905908;28;107402;-71
2023/12/22 03:26:28;;;;;;;2.13;1.33;;;4.60;99.90;4.20;97945.00;;;;4908152;28;103609;-73
2023/12/22 03:28:54;;;;;;;3.80;2.37;;;4.40;99.90;4.00;97933.00;;;;4908787;28;116373;-73
2023/12/22 03:31:20;;;;;;;1.83;1.47;;;5.00;99.90;3.90;97956.00;;;;4912391;28;102410;-74
2023/12/22 03:33:45;;;;;;;3.67;1.37;;;4.10;99.90;3.70;97943.00;;;;4912554;28;108317;-72
2023/12/22 03:36:11;;;;;;;2.10;1.53;;;4.00;99.90;3.60;97961.00;;;;4914060;28;88064;-74
2023/12/22 03:38:37;;;;;;;2.97;1.40;;;4.00;99.90;3.50;97962.00;;;;4907848;28;116632;-71
2023/12/22 03:41:03;;;;;;;7.27;2.50;;;4.40;99.90;3.50;97964.00;;;;4911740;28;109415;-75
2023/12/22 03:43:31;;;;;;;7.40;1.63;;;3.80;99.90;3.40;97965.00;;;;4922954;28;96987;-73
2023/12/22 03:45:57;;;;;;;4.43;1.50;;;3.70;99.90;3.30;97966.00;;;;4915817;28;87140;-73
2023/12/22 03:48:22;;;;;;;4.30;1.70;;;3.60;99.90;3.30;97972.00;;;;4910290;28;87846;-73
2023/12/22 03:50:48;;;;;;;1.93;1.10;;;3.60;99.90;3.30;97966.00;;;;4913883;28;109555;-73
2023/12/22 03:53:13;;;;;;;2.40;1.00;;;3.60;99.90;3.30;97969.00;;;;4913074;28;88930;-76
2023/12/22 03:55:39;;;;;;;1.80;1.13;;;3.60;99.90;3.40;97979.00;;;;4895740;28;114074;-72
2023/12/22 03:58:07;;;;;;;9.10;2.07;;;4.80;99.90;3.40;97976.00;;;;4913885;28;111291;-75
2023/12/22 04:00:33;;;;;;;8.10;1.27;;;3.60;99.90;3.40;97986.00;;;;4911363;28;87981;-71
2023/12/22 04:02:58;;;;;;;1.17;1.00;;;3.60;99.90;3.40;97987.00;;;;4909611;28;87656;-69
2023/12/22 04:05:24;;;;;;;5.27;1.77;;;3.60;99.90;3.40;97993.00;;;;4914742;28;116683;-69
2023/12/22 04:07:50;;;;;;;5.50;1.50;;;3.70;99.90;3.30;97994.00;;;;4909616;28;88266;-69
2023/12/22 04:10:19;;;;;;;4.03;0.80;;;4.10;99.90;3.20;97984.00;;;;4913156;28;110572;-67
2023/12/22 04:12:45;;;;;;;1.43;0.83;;;3.50;99.90;3.10;97994.00;;;;4909609;28;109204;-68
2023/12/22 04:15:10;;;;;;;1.90;1.03;;;4.20;99.90;3.00;97977.00;;;;4910720;28;115295;-67
2023/12/22 04:17:36;;;;;;;4.83;1.20;;;3.30;99.90;2.90;97982.00;;;;4910584;28;116449;-67
2023/12/22 04:20:02;;;;;;;3.17;1.03;;;3.20;99.90;2.80;97967.00;;;;4911359;28;87887;-66
2023/12/22 04:22:28;;;;;;;1.40;0.70;;;3.10;99.90;2.70;97970.00;;;;4911574;28;99018;-67
2023/12/22 04:24:54;;;;;;;0.87;0.60;;;3.00;99.90;2.60;97980.00;;;;4910806;28;117803;-68
2023/12/22 04:27:19;;;;;;;4.20;1.37;;;3.00;99.90;2.60;97971.00;;;;4910848;28;88066;-66
2023/12/22 04:29:45;;;;;;;1.37;0.90;;;2.90;99.90;2.50;97968.00;;;;4911856;28;109504;-68
2023/12/22 04:32:10;;;;;;;0.70;0.63;;;2.80;99.90;2.50;97968.00;;;;4909322;28;108528;-67
2023/12/22 04:34:36;;;;;;;1.20;1.03;;;3.50;99.90;2.50;97969.00;;;;4911578;28;108875;-68
2023/12/22 04:37:02;;;;;;;1.70;1.03;;;2.70;99.90;2.50;97966.00;;;;4914697;28;116803;-68
2023/12/22 04:39:27;;;;;;;5.53;0.90;;;2.70;99.90;2.50;97949.00;;;;4911658;28;94161;-69
2023/12/22 04:41:53;;;;;;;1.93;1.07;;;2.80;99.90;2.40;97942.00;;;;4905449;28;108405;-69
2023/12/22 04:44:19;;;;;;;4.37;1.37;;;2.70;99.90;2.40;97941.00;;;;4910707;28;117630;-69
2023/12/22 04:46:44;;;;;;;1.73;0.93;;;2.70;99.90;2.40;97936.00;;;;4907137;28;117287;-70
2023/12/22 04:49:10;;;;;;;1.73;1.00;;;2.70;99.90;2.40;97925.00;;;;4915569;28;108623;-68
2023/12/22 04:51:36;;;;;;;3.23;0.80;;;2.70;99.90;2.50;97932.00;;;;4913060;28;87789;-67
2023/12/22 04:54:02;;;;;;;4.53;0.83;;;2.80;99.90;2.50;97938.00;;;;4912461;28;120920;-68
2023/12/22 04:56:27;;;;;;;3.13;0.80;;;2.70;99.90;2.60;97930.00;;;;4909642;28;92080;-68
2023/12/22 04:58:53;;;;;;;1.13;1.03;;;2.80;99.90;2.70;97948.00;;;;4913774;28;109868;-70
2023/12/22 05:01:19;;;;;;;2.90;1.77;;;2.90;99.90;2.70;97932.00;;;;4913645;28;109803;-68
2023/12/22 05:03:44;;;;;;;4.30;2.10;;;3.00;99.90;2.80;97924.00;;;;4911607;28;88708;-69
2023/12/22 05:06:10;;;;;;;2.30;1.03;;;2.90;99.90;2.80;97930.00;;;;4896291;28;105821;-69
2023/12/22 05:08:36;;;;;;;1.20;1.07;;;3.00;99.90;2.90;97916.00;;;;4909779;28;108767;-70
2023/12/22 05:11:01;;;;;;;2.97;1.33;;;3.10;99.90;2.90;97916.00;;;;4912651;28;107882;-70
2023/12/22 05:13:27;;;;;;;8.00;1.70;;;3.10;99.90;2.90;97898.00;;;;4907695;28;105600;-71
2023/12/22 05:15:53;;;;;;;3.63;1.23;;;3.20;99.90;3.00;97902.00;;;;4910500;28;115210;-71
2023/12/22 05:18:18;;;;;;;1.93;1.40;;;3.20;99.90;3.00;97903.00;;;;4911494;28;88738;-72
2023/12/22 05:20:44;;;;;;;8.07;1.70;;;3.30;99.90;3.10;97912.00;;;;4908669;28;108678;-70
2023/12/22 05:23:10;;;;;;;9.07;1.60;;;3.30;99.90;3.10;97891.00;;;;4912175;28;87245;-71
2023/12/22 05:25:40;;;;;;;3.77;1.57;;;3.30;99.90;3.20;97906.00;;;;4911707;28;88102;-71
2023/12/22 05:28:06;;;;;;;1.40;1.27;;;3.40;99.90;3.20;97884.00;;;;4909871;28;87491;-69
2023/12/22 05:30:31;;;;;;;1.90;1.77;;;3.30;99.90;3.20;97904.00;;;;4909509;28;109554;-72
2023/12/22 05:32:57;;;;;;;2.30;1.17;;;4.10;99.90;3.20;97916.00;;;;4912496;28;91193;-70
2023/12/22 05:35:23;;;;;;;1.80;0.67;;;3.60;99.90;3.30;97915.00;;;;4903124;28;88529;-69
2023/12/22 05:37:48;;;;;;;3.77;1.40;;;3.50;99.90;3.30;97916.00;;;;4909457;28;108714;-71
2023/12/22 05:40:14;;;;;;;2.50;1.10;;;3.50;99.90;3.30;97904.00;;;;4908971;28;87870;-70
2023/12/22 05:42:40;;;;;;;2.13;1.07;;;4.40;99.90;3.30;97915.00;;;;4908944;28;103121;-70
2023/12/22 05:45:07;;;;;;;2.17;1.53;;;4.40;99.90;3.30;97912.00;;;;4908588;28;117279;-70
2023/12/22 05:47:33;;;;;;;3.37;1.30;;;3.60;99.90;3.40;97919.00;;;;4908952;28;86803;-71
2023/12/22 05:49:59;;;;;;;1.10;0.87;;;3.60;99.90;3.30;97894.00;;;;4899357;28;108184;-72
2023/12/22 05:52:25;;;;;;;3.67;1.80;;;3.60;99.90;3.40;97913.00;;;;4907654;28;116627;-70
2023/12/22 05:54:50;;;;;;;1.97;0.90;;;3.60;99.90;3.40;97912.00;;;;4918517;28;115885;-70
2023/12/22 05:57:16;;;;;;;2.77;1.10;;;3.60;99.90;3.40;97919.00;;;;4911571;28;105502;-73
2023/12/22 05:59:42;;;;;;;0.60;0.60;;;3.70;99.90;3.40;97922.00;;;;4913024;28;87977;-73
2023/12/22 06:02:08;;;;;;;4.77;1.10;;;3.80;99.90;3.50;97931.00;;;;4907833;28;112327;-71
2023/12/22 06:04:34;;;;;;;1.77;0.53;;;4.30;99.90;3.60;97923.00;;;;4908902;28;87931;-71
2023/12/22 06:07:00;;;;;;;2.70;0.90;;;3.70;99.90;3.60;97931.00;;;;4907604;28;87859;-71
2023/12/22 06:09:26;;;;;;;1.63;1.27;;;3.70;99.90;3.60;97952.00;;;;4914174;28;87650;-70
2023/12/22 06:11:52;;;;;;;1.47;0.50;;;3.90;99.90;3.70;97953.00;;;;4906121;28;116538;-73
2023/12/22 06:14:17;;;;;;;1.60;0.77;;;3.90;99.90;3.70;97960.00;;;;4910410;28;88133;-72
2023/12/22 06:16:43;;;;;;;0.53;0.53;;;4.00;99.90;3.80;97948.00;;;;4907211;28;109763;-73
2023/12/22 06:19:10;;;;;;;0.70;0.70;;;5.50;99.90;3.80;97945.00;;;;4908927;28;108453;-71
2023/12/22 06:21:38;;;;;;;8.53;1.33;;;4.10;99.90;3.90;97939.00;;;;4909530;28;88043;-70
2023/12/22 06:24:04;;;;;;;2.90;0.77;;;4.10;99.90;4.00;97943.00;;;;4905826;28;88297;-70
2023/12/22 06:26:30;;;;;;;0.70;0.57;;;4.20;99.90;4.00;97937.00;;;;4908046;28;98821;-73
2023/12/22 06:28:56;;;;;;;6.83;1.20;;;4.20;99.90;4.10;97914.00;;;;4910363;28;107747;-69
2023/12/22 06:31:22;;;;;;;3.77;0.77;;;4.20;99.90;4.10;97932.00;;;;4898475;28;99279;-70
2023/12/22 06:33:49;;;;;;;6.30;0.80;;;4.20;99.90;4.10;97926.00;;;;4912768;28;88011;-70
2023/12/22 06:36:23;;;;;;;1.97;1.47;;;4.30;99.90;4.20;97928.00;;;;4905887;28;99163;-70
2023/12/22 06:38:55;;;;;;;6.33;0.93;;;4.40;99.90;4.20;97950.00;;;;4926727;28;88034;-70
2023/12/22 06:41:22;;;;;;;3.13;0.63;;;4.30;99.90;4.20;97953.00;;;;4923329;28;88527;-70
2023/12/22 06:43:49;;;;;;;2.90;0.40;;;4.30;99.90;4.20;97936.00;;;;4909820;28;88753;-70
2023/12/22 06:46:23;;;;;;;1.10;0.73;;;4.40;99.90;4.20;97956.00;;;;4922155;28;87853;-70
2023/12/22 06:48:49;;;;;;;1.83;0.80;;;4.40;99.90;4.20;97938.00;;;;4922768;28;87783;-70
2023/12/22 06:51:27;;;;;;;6.67;1.23;;;4.40;99.90;4.20;97959.00;;;;4909508;28;87843;-71
2023/12/22 06:53:57;;;;;;;5.17;0.80;;;4.40;99.90;4.20;97953.00;;;;4920267;28;89422;-70
2023/12/22 06:56:28;;;;;;;2.37;0.67;;;4.40;99.90;4.10;97974.00;;;;4903569;28;87802;-72
2023/12/22 06:58:57;;;;;;;2.20;0.93;;;4.30;99.90;4.00;97953.00;;;;4902351;28;88042;-74
2023/12/22 07:01:29;;;;;;;5.10;1.57;;;4.90;99.90;3.90;97977.00;;;;4907902;28;88507;-73
2023/12/22 07:03:55;;;;;;;3.33;1.03;;;4.20;99.90;3.80;97994.00;;;;4909394;28;88195;-74
2023/12/22 07:06:24;;;;;;;0.47;0.47;;;4.10;99.90;3.80;97998.00;;;;4914476;28;88169;-73
2023/12/22 07:09:11;;;;;;;1.63;1.07;;;4.30;99.90;3.60;97972.00;;;;4908434;28;89849;-69
2023/12/22 07:11:50;;;;;;;3.00;1.23;;;4.10;99.90;3.60;97991.00;;;;4908374;28;88639;-71
2023/12/22 07:14:16;;;;;;;2.23;0.87;;;3.90;99.90;3.50;98000.00;;;;4902762;28;88079;-72
2023/12/22 07:16:44;;;;;;;2.80;1.43;;;3.70;99.90;3.40;97999.00;;;;4906596;28;91608;-70
2023/12/22 07:19:12;;;;;;;1.87;1.43;;;3.70;99.90;3.30;97993.00;;;;4906571;28;87484;-69
2023/12/22 07:21:39;;;;;;;5.10;1.27;;;3.60;99.90;3.10;97985.00;;;;4920704;28;88056;-69
2023/12/22 07:24:06;;;;;;;4.03;1.33;;;3.50;99.90;3.00;97997.00;;;;4902770;28;96739;-68
2023/12/22 07:26:31;;;;;;;2.23;1.00;;;3.30;99.90;2.90;98000.00;;;;4918157;28;90297;-67
2023/12/22 07:28:58;;;;;;;4.80;1.07;;;3.20;99.90;2.80;98013.00;;;;4903678;28;109178;-68
2023/12/22 07:31:24;;;;;;;3.07;1.30;;;3.10;99.90;2.80;98006.00;;;;4901795;28;87838;-69
2023/12/22 07:33:51;;;;;;;1.17;0.97;;;3.10;99.90;2.80;98017.00;;;;4902475;28;90752;-68
2023/12/22 07:36:21;;;;;;;1.27;0.90;;;3.90;99.90;2.90;97998.00;;;;4910949;28;87627;-70
2023/12/22 07:38:46;;;;;;;3.67;1.13;;;3.10;99.90;2.90;97997.00;;;;4903856;28;87812;-69
2023/12/22 07:41:12;;;;;;;2.80;1.90;;;3.10;99.90;3.00;98025.00;;;;4905338;28;116825;-70
2023/12/22 07:43:38;;;;;;;1.27;1.10;;;3.80;99.90;3.00;98012.00;;;;4901866;28;88125;-69
2023/12/22 07:46:03;;;;;;;1.40;0.93;;;3.20;99.90;3.10;98012.00;;;;4909489;28;88950;-72
2023/12/22 07:48:29;;;;;;;1.50;1.00;;;3.30;99.90;3.20;97999.00;;;;4896912;28;104912;-73
2023/12/22 07:50:55;;;;;;;0.93;0.70;;;3.50;99.90;3.30;98029.00;;;;4920203;28;118967;-73
2023/12/22 07:53:21;;;;;;;2.57;0.87;;;3.60;99.90;3.40;98025.00;;;;4923911;28;115885;-73
2023/12/22 07:55:47;;;;;;;1.30;0.97;;;3.50;99.90;3.50;98027.00;;;;4913335;28;87618;-76
2023/12/22 07:58:13;;;;;;;0.90;0.60;;;3.70;99.90;3.50;98028.00;;;;4895007;28;108049;-75
2023/12/22 08:00:39;;;;;;;1.43;0.80;;;4.20;99.90;3.60;98018.00;;;;4907047;28;88153;-73
2023/12/22 08:03:05;;;;;;;1.17;1.03;;;3.60;99.90;3.60;98014.00;;;;4907469;28;107220;-75
2023/12/22 08:05:33;;;;;;;3.67;1.20;;;3.80;99.90;3.60;98017.00;;;;4890817;28;100778;-74
2023/12/22 08:07:58;;;;;;;1.00;0.57;;;3.90;99.90;3.70;98048.00;;;;4913605;28;87768;-72
2023/12/22 08:10:24;;;;;;;2.30;0.93;;;4.60;99.90;3.80;98052.00;;;;4906179;28;110485;-71
2023/12/22 08:12:50;;;;;;;1.23;0.50;;;4.00;99.90;3.90;98043.00;;;;4922244;28;115452;-71
2023/12/22 08:15:15;;;;;;;0.93;0.53;;;4.30;99.90;4.00;98049.00;;;;4903690;28;109253;-71
2023/12/22 08:17:48;;;;;;;2.07;1.13;;;4.10;99.90;4.00;98054.00;;;;4908039;28;87871;-70
2023/12/22 08:20:21;;;;;;;3.20;1.03;;;4.20;99.90;4.10;98068.00;;;;4920936;28;87567;-70
2023/12/22 08:22:48;;;;;;;0.50;0.50;;;4.30;99.90;4.10;98047.00;;;;4920641;28;89004;-70
2023/12/22 08:25:14;;;;;;;6.93;1.30;;;4.30;99.90;4.20;98061.00;;;;4903825;28;87934;-68
2023/12/22 08:27:40;;;;;;;1.73;0.60;;;4.40;99.90;4.20;98070.00;;;;4910305;28;99074;-69
2023/12/22 08:30:07;;;;;;;1.67;0.30;;;4.40;99.90;4.30;98067.00;;;;4923598;28;88541;-69
2023/12/22 08:32:32;;;;;;;0.77;0.60;;;4.40;99.90;4.30;98071.00;;;;4907072;28;106728;-68
2023/12/22 08:34:58;;;;;;;0.30;0.30;;;4.40;99.90;4.30;98100.00;;;;4906068;28;111398;-68
2023/12/22 08:37:24;;;;;;;0.43;0.30;;;4.50;99.90;4.30;98100.00;;;;4908824;28;108670;-69
2023/12/22 08:39:50;;;;;;;0.43;0.40;;;4.50;99.90;4.30;98103.00;;;;4905472;28;118824;-71
2023/12/22 08:42:19;;;;;;;7.53;1.47;;;4.50;99.90;4.40;98099.00;;;;4909339;28;88305;-70
2023/12/22 08:44:45;;;;;;;0.33;0.30;;;4.60;99.90;4.30;98097.00;;;;4908053;28;109612;-69
2023/12/22 08:47:10;;;;;;;0.30;0.20;;;5.20;99.90;4.30;98096.00;;;;4908545;28;107370;-70
2023/12/22 08:49:37;;;;;;;1.33;0.20;;;4.50;99.90;4.30;98123.00;;;;4906307;28;116454;-71
2023/12/22 08:52:03;;;;;;;0.87;0.30;;;4.40;99.90;4.30;98118.00;;;;4905624;28;107146;-69
2023/12/22 08:54:30;;;;;;;1.17;0.53;;;4.50;99.90;4.50;98129.00;;;;4906877;28;88065;-68
2023/12/22 08:56:56;;;;;;;0.30;0.20;;;5.10;99.90;4.60;98115.00;;;;4906059;28;87975;-68
2023/12/22 08:59:22;;;;;;;1.87;0.60;;;4.70;99.90;4.60;98105.00;;;;4900570;28;89162;-69
2023/12/22 09:01:47;;;;;;;0.10;0.10;;;4.70;99.90;4.60;98106.00;;;;4907378;28;88717;-69
2023/12/22 09:04:22;;;;;;;0.20;0.10;;;4.80;99.90;4.40;98116.00;;;;4906216;28;100536;-68
2023/12/22 09:06:51;;;;;;;0.30;0.30;;;4.70;99.90;4.30;98142.00;;;;4912911;28;87702;-71
2023/12/22 09:09:17;;;;;;;0.23;0.23;;;4.60;99.90;4.30;98160.00;;;;4907942;28;88189;-69
2023/12/22 09:11:42;;;;;;;0.60;0.30;;;5.30;99.90;4.30;98159.00;;;;4906888;28;110103;-69
2023/12/22 09:14:11;;;;;;;0.70;0.60;;;4.50;99.90;4.30;98154.00;;;;4908306;28;110678;-69
2023/12/22 09:16:38;;;;;;;2.93;0.60;;;4.40;99.90;4.40;98157.00;;;;4912076;28;87830;-69
2023/12/22 09:19:04;;;;;;;0.93;0.40;;;4.50;99.90;4.40;98147.00;;;;4904914;28;87731;-70
2023/12/22 09:21:30;;;;;;;0.50;0.43;;;4.60;99.90;4.40;98157.00;;;;4904491;28;90344;-70
2023/12/22 09:23:56;;;;;;;0.77;0.67;;;4.60;99.90;4.40;98178.00;;;;4904903;28;109929;-69
2023/12/22 09:26:21;;;;;;;1.67;0.80;;;4.60;99.90;4.40;98192.00;;;;4904703;28;89669;-70
2023/12/22 09:28:47;;;;;;;0.57;0.50;;;4.60;99.90;4.30;98175.00;;;;4919898;28;107826;-71
2023/12/22 09:31:13;;;;;;;0.33;0.33;;;5.10;99.90;4.20;98183.00;;;;4903573;28;115955;-70
2023/12/22 09:33:41;;;;;;;0.30;0.30;;;4.50;99.90;4.20;98184.00;;;;4906304;28;109713;-71
2023/12/22 09:36:07;;;;;;;0.47;0.40;;;4.20;99.90;4.10;98177.00;;;;4903678;28;88665;-70
2023/12/22 09:38:33;;;;;;;1.03;0.77;;;4.40;99.90;4.20;98177.00;;;;4906924;28;88833;-69
2023/12/22 09:41:00;;;;;;;2.03;0.43;;;4.30;99.90;4.30;98173.00;;;;4903322;28;88321;-69
2023/12/22 09:43:26;;;;;;;2.10;1.10;;;4.40;99.90;4.30;98180.00;;;;4915709;28;87733;-71
2023/12/22 09:45:53;;;;;;;0.87;0.60;;;4.50;99.90;4.40;98176.00;;;;4893016;28;87729;-71
2023/12/22 09:48:26;;;;;;;7.57;0.83;;;4.50;99.90;4.50;98191.00;;;;4923623;28;88744;-71
2023/12/22 09:50:54;;;;;;;0.80;0.63;;;5.00;99.90;4.60;98198.00;;;;4921474;28;87729;-71
2023/12/22 09:53:21;;;;;;;0.97;0.63;;;4.70;99.90;4.70;98196.00;;;;4907495;28;88712;-71
2023/12/22 09:55:49;;;;;;;1.13;0.83;;;4.80;99.90;4.70;98189.00;;;;4906833;28;87908;-72
2023/12/22 09:58:18;;;;;;;10.67;1.20;;;4.90;99.90;4.80;98199.00;;;;4904641;28;110433;-70
2023/12/22 10:00:44;;;;;;;2.60;1.10;;;4.90;99.90;4.80;98206.00;;;;4902086;28;90212;-70
2023/12/22 10:03:12;;;;;;;3.47;0.80;;;5.10;99.90;4.80;98185.00;;;;4906494;28;87542;-70
2023/12/22 10:05:43;;;;;;;2.33;0.80;;;4.90;99.90;4.80;98206.00;;;;4907635;28;87891;-70
2023/12/22 10:08:12;;;;;;;1.63;1.30;;;4.90;99.90;4.70;98186.00;;;;4919595;28;87861;-71
2023/12/22 10:10:45;;;;;;;2.93;0.90;;;4.90;99.90;4.70;98200.00;;;;4912141;28;88251;-70
2023/12/22 10:13:12;;;;;;;1.60;0.40;;;4.80;99.90;4.70;98204.00;;;;4904271;28;87737;-70
2023/12/22 10:15:41;;;;;;;1.87;0.50;;;4.90;99.90;5.10;98216.00;;;;4922418;28;87348;-69
2023/12/22 10:18:07;;;;;;;0.60;0.60;;;5.50;99.90;5.40;98213.00;;;;4905347;28;107726;-70
2023/12/22 10:20:35;;;;;;;2.00;0.63;;;5.50;99.90;5.70;98216.00;;;;4907824;28;87896;-71
2023/12/22 10:23:01;;;;;;;1.13;0.50;;;5.20;99.90;5.90;98214.00;;;;4921345;28;87825;-70
2023/12/22 10:25:30;;;;;;;0.80;0.33;;;6.60;99.90;6.10;98207.00;;;;4906009;28;99562;-71
2023/12/22 10:27:56;;;;;;;1.37;0.73;;;6.20;99.90;6.30;98199.00;;;;4914077;28;88743;-70
2023/12/22 10:30:24;;;;;;;1.30;0.43;;;6.50;99.90;6.50;98202.00;;;;4905136;28;88672;-71
2023/12/22 10:32:53;;;;;;;1.60;0.53;;;6.60;99.90;6.70;98232.00;;;;4907478;28;88001;-70
2023/12/22 10:35:23;;;;;;;0.90;0.40;;;6.70;99.90;6.80;98226.00;;;;4913257;28;107909;-70
2023/12/22 10:37:53;;;;;;;2.33;0.63;;;6.90;99.90;6.80;98220.00;;;;4905576;28;87684;-71
2023/12/22 10:40:19;;;;;;;1.50;0.73;;;6.90;99.90;6.70;98241.00;;;;4901897;28;89366;-70
2023/12/22 10:42:45;;;;;;;1.93;0.53;;;6.90;99.90;6.60;98247.00;;;;4906424;28;87018;-70
2023/12/22 10:45:11;;;;;;;2.97;0.80;;;7.40;99.90;6.60;98209.00;;;;4903430;28;108326;-72
2023/12/22 10:47:39;;;;;;;0.20;0.20;;;6.90;99.90;6.50;98211.00;;;;4909621;28;105924;-71
2023/12/22 10:50:06;;;;;;;0.57;0.40;;;6.80;99.90;6.40;98225.00;;;;4912968;28;88300;-71
2023/12/22 10:52:32;;;;;;;1.80;0.63;;;6.60;99.90;6.20;98215.00;;;;4914388;28;88217;-72
2023/12/22 10:54:58;;;;;;;1.10;0.70;;;6.50;99.90;6.20;98221.00;;;;4907685;28;107251;-71
2023/12/22 10:57:24;;;;;;;3.27;0.83;;;6.60;99.90;6.20;98230.00;;;;4907666;28;89398;-71
2023/12/22 10:59:51;;;;;;;2.13;1.13;;;6.40;99.90;6.00;98215.00;;;;4903355;28;88768;-72
2023/12/22 11:02:19;;;;;;;1.80;0.73;;;6.20;99.90;5.90;98235.00;;;;4908999;28;87683;-71
2023/12/22 11:05:01;;;;;;;0.60;0.60;;;6.10;99.90;5.70;98222.00;;;;4904610;28;87589;-70